createdAt,value
2023-04-16T04:30:19.121Z,1
2023-04-16T04:45:19.518Z,4.2
2023-04-16T05:00:19.258Z,8.4
2023-04-16T05:15:25.381Z,17.5
2023-04-16T05:30:18.646Z,14.9
2023-04-16T05:45:19.157Z,18.5
2023-04-16T06:00:20.060Z,26.4
2023-04-16T06:15:19.038Z,24.8
2023-04-16T06:30:19.067Z,47.5
2023-04-16T06:45:18.921Z,67.7
2023-04-16T07:00:18.973Z,66
2023-04-16T07:15:18.849Z,85.4
2023-04-16T07:30:18.908Z,122.9
2023-04-16T07:45:19.207Z,121
2023-04-16T08:00:18.894Z,106.7
2023-04-16T08:15:18.869Z,59.9
2023-04-16T08:30:19.153Z,62.9
2023-04-16T08:45:19.139Z,91.3
2023-04-16T09:00:19.379Z,140.3
2023-04-16T09:15:18.966Z,223
2023-04-16T09:30:19.416Z,153.1
2023-04-16T09:45:27.005Z,100
2023-04-16T10:00:19.499Z,94.6
2023-04-16T10:15:19.473Z,135.8
2023-04-16T10:30:19.644Z,202.4
2023-04-16T10:45:19.788Z,168.5
2023-04-16T11:00:19.193Z,94.1
2023-04-16T11:15:19.323Z,133.6
2023-04-16T11:30:19.774Z,148.6
2023-04-16T11:45:19.727Z,150.8
2023-04-16T12:00:21.137Z,137.4
2023-04-16T12:15:19.111Z,196.7
2023-04-16T12:30:19.605Z,227.4
2023-04-16T12:45:19.604Z,254.2
2023-04-16T13:00:19.826Z,189.6
2023-04-16T13:15:18.823Z,187.5
2023-04-16T13:30:18.868Z,258.4
2023-04-16T13:45:20.101Z,242.7
2023-04-16T14:00:19.143Z,204.4
2023-04-16T14:15:18.890Z,214.5
2023-04-16T14:30:19.117Z,174.2
2023-04-16T14:45:19.160Z,157.5
2023-04-16T15:00:18.960Z,108.7
2023-04-16T15:15:19.352Z,126.4
2023-04-16T15:30:22.012Z,115.3
2023-04-16T15:45:18.829Z,145.5
2023-04-16T16:00:19.255Z,165.9
2023-04-16T16:15:19.043Z,114.9
2023-04-16T16:30:19.191Z,86.7
2023-04-16T16:45:19.423Z,66
2023-04-16T17:00:19.878Z,44.5
2023-04-16T17:15:21.661Z,30.9
2023-04-16T17:30:19.593Z,24.6
2023-04-16T17:45:19.245Z,19.7
2023-04-16T18:00:19.092Z,14.8
2023-04-16T18:15:18.724Z,7.7
2023-04-16T18:30:22.094Z,1.9
2023-04-16T18:45:21.823Z,1.1
2023-04-16T19:00:19.501Z,1.1
2023-04-16T19:15:18.807Z,1.1
2023-04-16T19:30:19.595Z,1.1
